sensor_id;sensor_type;location;lat;lon;timestamp;P1;durP1;ratioP1;P2;durP2;ratioP2
56427;SDS011;42331;53.578;9.760;2023-11-21T00:02:02;53.03;;;16.25;;
56427;SDS011;42331;53.578;9.760;2023-11-21T00:04:34;64.32;;;17.25;;
56427;SDS011;42331;53.578;9.760;2023-11-21T00:07:05;55.75;;;17.85;;
56427;SDS011;42331;53.578;9.760;2023-11-21T00:09:36;60.20;;;17.57;;
56427;SDS011;42331;53.578;9.760;2023-11-21T00:12:08;57.13;;;18.07;;
56427;SDS011;42331;53.578;9.760;2023-11-21T00:14:46;55.13;;;17.65;;
56427;SDS011;42331;53.578;9.760;2023-11-21T00:17:18;52.40;;;16.83;;
56427;SDS011;42331;53.578;9.760;2023-11-21T00:19:49;47.80;;;16.83;;
56427;SDS011;42331;53.578;9.760;2023-11-21T00:22:22;51.13;;;16.63;;
56427;SDS011;42331;53.578;9.760;2023-11-21T00:24:53;49.30;;;16.58;;
56427;SDS011;42331;53.578;9.760;2023-11-21T00:27:24;52.58;;;17.55;;
56427;SDS011;42331;53.578;9.760;2023-11-21T00:29:55;45.47;;;15.85;;
56427;SDS011;42331;53.578;9.760;2023-11-21T00:32:26;49.20;;;16.95;;
56427;SDS011;42331;53.578;9.760;2023-11-21T00:34:57;51.20;;;17.27;;
56427;SDS011;42331;53.578;9.760;2023-11-21T00:37:29;48.83;;;16.75;;
56427;SDS011;42331;53.578;9.760;2023-11-21T00:40:02;43.72;;;16.45;;
56427;SDS011;42331;53.578;9.760;2023-11-21T00:42:36;46.75;;;16.80;;
56427;SDS011;42331;53.578;9.760;2023-11-21T00:45:07;43.75;;;17.55;;
56427;SDS011;42331;53.578;9.760;2023-11-21T00:47:38;47.33;;;16.77;;
56427;SDS011;42331;53.578;9.760;2023-11-21T00:50:09;28.70;;;11.98;;
56427;SDS011;42331;53.578;9.760;2023-11-21T00:52:40;42.03;;;15.88;;
56427;SDS011;42331;53.578;9.760;2023-11-21T00:55:11;38.13;;;14.57;;
56427;SDS011;42331;53.578;9.760;2023-11-21T00:57:43;36.87;;;14.27;;
56427;SDS011;42331;53.578;9.760;2023-11-21T01:00:14;42.55;;;15.25;;
56427;SDS011;42331;53.578;9.760;2023-11-21T01:02:47;39.70;;;15.30;;
56427;SDS011;42331;53.578;9.760;2023-11-21T01:05:18;37.83;;;15.23;;
56427;SDS011;42331;53.578;9.760;2023-11-21T01:07:50;38.88;;;15.50;;
56427;SDS011;42331;53.578;9.760;2023-11-21T01:10:21;41.53;;;15.90;;
56427;SDS011;42331;53.578;9.760;2023-11-21T01:12:52;39.00;;;15.53;;
56427;SDS011;42331;53.578;9.760;2023-11-21T01:15:23;38.13;;;15.90;;
56427;SDS011;42331;53.578;9.760;2023-11-21T01:17:56;43.55;;;15.95;;
56427;SDS011;42331;53.578;9.760;2023-11-21T01:20:27;45.50;;;17.10;;
56427;SDS011;42331;53.578;9.760;2023-11-21T01:22:58;36.00;;;15.90;;
56427;SDS011;42331;53.578;9.760;2023-11-21T01:25:29;47.25;;;16.13;;
56427;SDS011;42331;53.578;9.760;2023-11-21T01:28:00;44.08;;;15.98;;
56427;SDS011;42331;53.578;9.760;2023-11-21T01:30:31;44.73;;;16.20;;
56427;SDS011;42331;53.578;9.760;2023-11-21T01:33:02;43.10;;;17.57;;
56427;SDS011;42331;53.578;9.760;2023-11-21T01:35:33;37.63;;;16.13;;
56427;SDS011;42331;53.578;9.760;2023-11-21T01:38:04;44.40;;;16.98;;
56427;SDS011;42331;53.578;9.760;2023-11-21T01:40:38;52.15;;;17.48;;
56427;SDS011;42331;53.578;9.760;2023-11-21T01:43:09;44.53;;;17.17;;
56427;SDS011;42331;53.578;9.760;2023-11-21T01:45:40;36.73;;;14.30;;
56427;SDS011;42331;53.578;9.760;2023-11-21T01:48:11;39.38;;;15.93;;
56427;SDS011;42331;53.578;9.760;2023-11-21T01:50:42;40.55;;;15.40;;
56427;SDS011;42331;53.578;9.760;2023-11-21T01:53:15;35.22;;;13.82;;
56427;SDS011;42331;53.578;9.760;2023-11-21T01:55:46;37.70;;;15.03;;
56427;SDS011;42331;53.578;9.760;2023-11-21T01:58:17;34.20;;;13.65;;
56427;SDS011;42331;53.578;9.760;2023-11-21T02:00:48;36.53;;;14.13;;
56427;SDS011;42331;53.578;9.760;2023-11-21T02:03:21;35.50;;;12.88;;
56427;SDS011;42331;53.578;9.760;2023-11-21T02:05:52;41.67;;;15.07;;
56427;SDS011;42331;53.578;9.760;2023-11-21T02:08:23;29.02;;;12.73;;
56427;SDS011;42331;53.578;9.760;2023-11-21T02:10:55;33.60;;;14.27;;
56427;SDS011;42331;53.578;9.760;2023-11-21T02:13:27;26.92;;;13.68;;
56427;SDS011;42331;53.578;9.760;2023-11-21T02:15:58;26.02;;;10.77;;
56427;SDS011;42331;53.578;9.760;2023-11-21T02:18:29;23.95;;;11.48;;
56427;SDS011;42331;53.578;9.760;2023-11-21T02:21:01;24.15;;;11.02;;
56427;SDS011;42331;53.578;9.760;2023-11-21T02:26:04;13.45;;;7.05;;
56427;SDS011;42331;53.578;9.760;2023-11-21T02:28:36;26.98;;;10.60;;
56427;SDS011;42331;53.578;9.760;2023-11-21T02:31:08;18.33;;;8.77;;
56427;SDS011;42331;53.578;9.760;2023-11-21T02:33:39;22.02;;;9.85;;
56427;SDS011;42331;53.578;9.760;2023-11-21T02:36:10;18.30;;;9.73;;
56427;SDS011;42331;53.578;9.760;2023-11-21T02:38:41;19.35;;;9.70;;
56427;SDS011;42331;53.578;9.760;2023-11-21T02:41:12;17.50;;;9.17;;
56427;SDS011;42331;53.578;9.760;2023-11-21T02:43:44;19.40;;;9.00;;
56427;SDS011;42331;53.578;9.760;2023-11-21T02:46:15;16.08;;;8.05;;
56427;SDS011;42331;53.578;9.760;2023-11-21T02:48:46;16.58;;;7.97;;
56427;SDS011;42331;53.578;9.760;2023-11-21T02:51:17;13.77;;;7.57;;
56427;SDS011;42331;53.578;9.760;2023-11-21T02:53:48;13.38;;;7.53;;
56427;SDS011;42331;53.578;9.760;2023-11-21T02:56:21;13.63;;;7.40;;
56427;SDS011;42331;53.578;9.760;2023-11-21T02:58:52;15.52;;;7.90;;
56427;SDS011;42331;53.578;9.760;2023-11-21T03:01:23;14.40;;;7.45;;
56427;SDS011;42331;53.578;9.760;2023-11-21T03:03:59;12.00;;;7.18;;
56427;SDS011;42331;53.578;9.760;2023-11-21T03:06:31;13.63;;;7.25;;
56427;SDS011;42331;53.578;9.760;2023-11-21T03:09:13;12.60;;;6.82;;
56427;SDS011;42331;53.578;9.760;2023-11-21T03:12:11;13.38;;;6.15;;
56427;SDS011;42331;53.578;9.760;2023-11-21T03:14:42;12.52;;;7.07;;
56427;SDS011;42331;53.578;9.760;2023-11-21T03:17:13;10.00;;;6.32;;
56427;SDS011;42331;53.578;9.760;2023-11-21T03:19:45;10.75;;;6.25;;
56427;SDS011;42331;53.578;9.760;2023-11-21T03:22:16;12.55;;;6.80;;
56427;SDS011;42331;53.578;9.760;2023-11-21T03:24:47;10.15;;;6.20;;
56427;SDS011;42331;53.578;9.760;2023-11-21T03:27:18;10.27;;;5.90;;
56427;SDS011;42331;53.578;9.760;2023-11-21T03:29:49;11.20;;;6.72;;
56427;SDS011;42331;53.578;9.760;2023-11-21T03:32:20;8.85;;;5.20;;
56427;SDS011;42331;53.578;9.760;2023-11-21T03:34:57;12.10;;;6.40;;
56427;SDS011;42331;53.578;9.760;2023-11-21T03:37:28;13.40;;;6.50;;
56427;SDS011;42331;53.578;9.760;2023-11-21T03:39:59;10.63;;;6.60;;
56427;SDS011;42331;53.578;9.760;2023-11-21T03:42:30;11.67;;;6.63;;
56427;SDS011;42331;53.578;9.760;2023-11-21T03:45:01;12.88;;;7.28;;
56427;SDS011;42331;53.578;9.760;2023-11-21T03:47:33;13.23;;;6.28;;
56427;SDS011;42331;53.578;9.760;2023-11-21T03:50:04;13.53;;;6.90;;
56427;SDS011;42331;53.578;9.760;2023-11-21T03:52:35;12.23;;;7.10;;
56427;SDS011;42331;53.578;9.760;2023-11-21T03:55:06;11.80;;;6.60;;
56427;SDS011;42331;53.578;9.760;2023-11-21T03:57:38;11.10;;;6.28;;
56427;SDS011;42331;53.578;9.760;2023-11-21T04:00:09;14.50;;;6.90;;
56427;SDS011;42331;53.578;9.760;2023-11-21T04:02:40;14.32;;;7.15;;
56427;SDS011;42331;53.578;9.760;2023-11-21T04:05:11;10.67;;;6.40;;
56427;SDS011;42331;53.578;9.760;2023-11-21T04:07:42;12.57;;;7.13;;
56427;SDS011;42331;53.578;9.760;2023-11-21T04:10:13;11.20;;;6.77;;
56427;SDS011;42331;53.578;9.760;2023-11-21T04:12:45;11.57;;;6.85;;
56427;SDS011;42331;53.578;9.760;2023-11-21T04:15:17;12.43;;;6.97;;
56427;SDS011;42331;53.578;9.760;2023-11-21T04:17:48;11.73;;;6.72;;
56427;SDS011;42331;53.578;9.760;2023-11-21T04:20:19;11.27;;;6.93;;
56427;SDS011;42331;53.578;9.760;2023-11-21T04:22:50;11.30;;;6.90;;
56427;SDS011;42331;53.578;9.760;2023-11-21T04:25:21;13.45;;;7.15;;
56427;SDS011;42331;53.578;9.760;2023-11-21T04:27:53;13.57;;;7.07;;
56427;SDS011;42331;53.578;9.760;2023-11-21T04:30:24;16.98;;;7.57;;
56427;SDS011;42331;53.578;9.760;2023-11-21T04:32:55;9.25;;;5.22;;
56427;SDS011;42331;53.578;9.760;2023-11-21T04:35:28;14.38;;;7.93;;
56427;SDS011;42331;53.578;9.760;2023-11-21T04:37:59;12.02;;;7.35;;
56427;SDS011;42331;53.578;9.760;2023-11-21T04:40:30;15.77;;;7.68;;
56427;SDS011;42331;53.578;9.760;2023-11-21T04:43:01;11.87;;;6.93;;
56427;SDS011;42331;53.578;9.760;2023-11-21T04:45:32;11.88;;;7.00;;
56427;SDS011;42331;53.578;9.760;2023-11-21T04:48:03;12.90;;;6.80;;
56427;SDS011;42331;53.578;9.760;2023-11-21T04:50:34;12.57;;;7.10;;
56427;SDS011;42331;53.578;9.760;2023-11-21T04:53:05;11.73;;;7.37;;
56427;SDS011;42331;53.578;9.760;2023-11-21T04:55:36;12.73;;;7.25;;
56427;SDS011;42331;53.578;9.760;2023-11-21T04:58:07;13.10;;;6.70;;
56427;SDS011;42331;53.578;9.760;2023-11-21T05:00:38;12.52;;;6.82;;
56427;SDS011;42331;53.578;9.760;2023-11-21T05:03:09;11.37;;;6.87;;
56427;SDS011;42331;53.578;9.760;2023-11-21T05:05:40;13.00;;;7.45;;
56427;SDS011;42331;53.578;9.760;2023-11-21T05:08:11;13.63;;;7.43;;
56427;SDS011;42331;53.578;9.760;2023-11-21T05:10:43;11.75;;;6.95;;
56427;SDS011;42331;53.578;9.760;2023-11-21T05:13:14;10.97;;;6.70;;
56427;SDS011;42331;53.578;9.760;2023-11-21T05:15:47;13.27;;;7.55;;
56427;SDS011;42331;53.578;9.760;2023-11-21T05:18:18;13.15;;;7.35;;
56427;SDS011;42331;53.578;9.760;2023-11-21T05:20:49;13.63;;;7.33;;
56427;SDS011;42331;53.578;9.760;2023-11-21T05:23:20;10.60;;;4.95;;
56427;SDS011;42331;53.578;9.760;2023-11-21T05:25:51;13.10;;;7.27;;
56427;SDS011;42331;53.578;9.760;2023-11-21T05:28:23;12.00;;;7.47;;
56427;SDS011;42331;53.578;9.760;2023-11-21T05:30:54;11.45;;;6.57;;
56427;SDS011;42331;53.578;9.760;2023-11-21T05:33:25;11.95;;;6.70;;
56427;SDS011;42331;53.578;9.760;2023-11-21T05:35:56;12.45;;;7.38;;
56427;SDS011;42331;53.578;9.760;2023-11-21T05:38:27;15.55;;;7.90;;
56427;SDS011;42331;53.578;9.760;2023-11-21T05:40:58;13.90;;;7.57;;
56427;SDS011;42331;53.578;9.760;2023-11-21T05:43:29;16.37;;;8.20;;
56427;SDS011;42331;53.578;9.760;2023-11-21T05:46:00;12.40;;;7.40;;
56427;SDS011;42331;53.578;9.760;2023-11-21T05:48:31;12.55;;;7.50;;
56427;SDS011;42331;53.578;9.760;2023-11-21T05:51:06;12.07;;;7.00;;
56427;SDS011;42331;53.578;9.760;2023-11-21T05:53:38;13.30;;;7.18;;
56427;SDS011;42331;53.578;9.760;2023-11-21T05:56:09;12.40;;;7.38;;
56427;SDS011;42331;53.578;9.760;2023-11-21T05:58:40;11.73;;;6.95;;
56427;SDS011;42331;53.578;9.760;2023-11-21T06:01:11;11.53;;;6.93;;
56427;SDS011;42331;53.578;9.760;2023-11-21T06:03:43;12.45;;;6.80;;
56427;SDS011;42331;53.578;9.760;2023-11-21T06:06:14;12.25;;;6.30;;
56427;SDS011;42331;53.578;9.760;2023-11-21T06:08:45;12.65;;;7.10;;
56427;SDS011;42331;53.578;9.760;2023-11-21T06:11:16;12.20;;;7.03;;
56427;SDS011;42331;53.578;9.760;2023-11-21T06:13:47;7.40;;;4.88;;
56427;SDS011;42331;53.578;9.760;2023-11-21T06:16:18;11.27;;;6.47;;
56427;SDS011;42331;53.578;9.760;2023-11-21T06:18:49;14.90;;;7.00;;
56427;SDS011;42331;53.578;9.760;2023-11-21T06:21:20;10.55;;;6.80;;
56427;SDS011;42331;53.578;9.760;2023-11-21T06:23:51;14.07;;;7.03;;
56427;SDS011;42331;53.578;9.760;2023-11-21T06:26:23;12.25;;;7.38;;
56427;SDS011;42331;53.578;9.760;2023-11-21T06:28:55;11.50;;;6.90;;
56427;SDS011;42331;53.578;9.760;2023-11-21T06:31:27;12.80;;;7.43;;
56427;SDS011;42331;53.578;9.760;2023-11-21T06:33:58;10.37;;;6.90;;
56427;SDS011;42331;53.578;9.760;2023-11-21T06:36:29;12.30;;;7.53;;
56427;SDS011;42331;53.578;9.760;2023-11-21T06:39:00;13.40;;;7.27;;
56427;SDS011;42331;53.578;9.760;2023-11-21T06:41:32;12.10;;;7.43;;
56427;SDS011;42331;53.578;9.760;2023-11-21T06:44:03;17.35;;;7.85;;
56427;SDS011;42331;53.578;9.760;2023-11-21T06:46:34;13.10;;;7.22;;
56427;SDS011;42331;53.578;9.760;2023-11-21T06:49:05;13.00;;;7.20;;
56427;SDS011;42331;53.578;9.760;2023-11-21T06:51:36;12.68;;;7.57;;
56427;SDS011;42331;53.578;9.760;2023-11-21T06:54:07;13.97;;;7.37;;
56427;SDS011;42331;53.578;9.760;2023-11-21T06:56:39;13.18;;;7.93;;
56427;SDS011;42331;53.578;9.760;2023-11-21T06:59:10;13.30;;;7.60;;
56427;SDS011;42331;53.578;9.760;2023-11-21T07:01:41;14.67;;;7.40;;
56427;SDS011;42331;53.578;9.760;2023-11-21T07:04:13;14.52;;;7.65;;
56427;SDS011;42331;53.578;9.760;2023-11-21T07:06:44;15.25;;;7.60;;
56427;SDS011;42331;53.578;9.760;2023-11-21T07:09:15;11.40;;;7.40;;
56427;SDS011;42331;53.578;9.760;2023-11-21T07:11:46;8.98;;;5.40;;
56427;SDS011;42331;53.578;9.760;2023-11-21T07:14:18;12.82;;;8.13;;
56427;SDS011;42331;53.578;9.760;2023-11-21T07:16:49;15.40;;;8.10;;
56427;SDS011;42331;53.578;9.760;2023-11-21T07:19:22;12.02;;;7.22;;
56427;SDS011;42331;53.578;9.760;2023-11-21T07:24:25;12.65;;;7.38;;
56427;SDS011;42331;53.578;9.760;2023-11-21T07:26:57;12.27;;;7.63;;
56427;SDS011;42331;53.578;9.760;2023-11-21T07:31:59;16.45;;;7.13;;
56427;SDS011;42331;53.578;9.760;2023-11-21T07:34:31;15.93;;;8.00;;
56427;SDS011;42331;53.578;9.760;2023-11-21T07:37:02;13.27;;;7.53;;
56427;SDS011;42331;53.578;9.760;2023-11-21T07:39:33;11.15;;;7.03;;
56427;SDS011;42331;53.578;9.760;2023-11-21T07:42:04;10.37;;;6.13;;
56427;SDS011;42331;53.578;9.760;2023-11-21T07:44:35;12.57;;;6.90;;
56427;SDS011;42331;53.578;9.760;2023-11-21T07:47:06;12.82;;;7.78;;
56427;SDS011;42331;53.578;9.760;2023-11-21T07:49:38;11.02;;;6.13;;
56427;SDS011;42331;53.578;9.760;2023-11-21T07:52:09;12.07;;;7.27;;
56427;SDS011;42331;53.578;9.760;2023-11-21T07:54:40;12.73;;;7.32;;
56427;SDS011;42331;53.578;9.760;2023-11-21T07:57:12;13.85;;;7.63;;
56427;SDS011;42331;53.578;9.760;2023-11-21T07:59:43;11.15;;;7.00;;
56427;SDS011;42331;53.578;9.760;2023-11-21T08:02:14;12.68;;;6.53;;
56427;SDS011;42331;53.578;9.760;2023-11-21T08:04:47;11.50;;;6.40;;
56427;SDS011;42331;53.578;9.760;2023-11-21T08:07:19;13.10;;;7.22;;
56427;SDS011;42331;53.578;9.760;2023-11-21T08:09:50;7.87;;;4.70;;
56427;SDS011;42331;53.578;9.760;2023-11-21T08:14:54;10.27;;;6.28;;
56427;SDS011;42331;53.578;9.760;2023-11-21T08:17:25;7.93;;;5.17;;
56427;SDS011;42331;53.578;9.760;2023-11-21T08:19:56;14.73;;;6.70;;
56427;SDS011;42331;53.578;9.760;2023-11-21T08:22:28;12.15;;;6.75;;
56427;SDS011;42331;53.578;9.760;2023-11-21T08:24:59;10.70;;;6.78;;
56427;SDS011;42331;53.578;9.760;2023-11-21T08:27:30;11.93;;;7.28;;
56427;SDS011;42331;53.578;9.760;2023-11-21T08:30:04;11.90;;;6.33;;
56427;SDS011;42331;53.578;9.760;2023-11-21T08:32:35;13.63;;;7.25;;
56427;SDS011;42331;53.578;9.760;2023-11-21T08:35:07;13.38;;;7.13;;
56427;SDS011;42331;53.578;9.760;2023-11-21T08:37:38;11.75;;;6.70;;
56427;SDS011;42331;53.578;9.760;2023-11-21T08:40:09;13.43;;;7.43;;
56427;SDS011;42331;53.578;9.760;2023-11-21T08:42:42;11.18;;;6.75;;
56427;SDS011;42331;53.578;9.760;2023-11-21T08:45:15;13.57;;;7.25;;
56427;SDS011;42331;53.578;9.760;2023-11-21T08:50:18;12.05;;;6.18;;
56427;SDS011;42331;53.578;9.760;2023-11-21T08:52:49;13.67;;;6.60;;
56427;SDS011;42331;53.578;9.760;2023-11-21T08:55:21;17.95;;;7.03;;
56427;SDS011;42331;53.578;9.760;2023-11-21T08:57:52;11.35;;;5.95;;
56427;SDS011;42331;53.578;9.760;2023-11-21T09:00:23;12.90;;;6.47;;
56427;SDS011;42331;53.578;9.760;2023-11-21T09:02:54;17.13;;;5.53;;
56427;SDS011;42331;53.578;9.760;2023-11-21T09:05:25;10.55;;;5.75;;
56427;SDS011;42331;53.578;9.760;2023-11-21T09:07:56;7.87;;;5.13;;
56427;SDS011;42331;53.578;9.760;2023-11-21T09:10:27;7.60;;;4.63;;
56427;SDS011;42331;53.578;9.760;2023-11-21T09:12:58;9.40;;;4.63;;
56427;SDS011;42331;53.578;9.760;2023-11-21T09:15:30;9.88;;;4.70;;
56427;SDS011;42331;53.578;9.760;2023-11-21T09:18:01;8.63;;;4.87;;
56427;SDS011;42331;53.578;9.760;2023-11-21T09:20:32;8.47;;;4.70;;
56427;SDS011;42331;53.578;9.760;2023-11-21T09:23:03;6.10;;;3.87;;
56427;SDS011;42331;53.578;9.760;2023-11-21T09:25:34;6.00;;;4.10;;
56427;SDS011;42331;53.578;9.760;2023-11-21T09:28:05;8.20;;;4.60;;
56427;SDS011;42331;53.578;9.760;2023-11-21T09:30:38;9.70;;;3.70;;
56427;SDS011;42331;53.578;9.760;2023-11-21T09:33:09;5.53;;;3.00;;
56427;SDS011;42331;53.578;9.760;2023-11-21T09:35:40;6.85;;;3.13;;
56427;SDS011;42331;53.578;9.760;2023-11-21T09:38:14;5.22;;;2.75;;
56427;SDS011;42331;53.578;9.760;2023-11-21T09:40:45;8.88;;;3.05;;
56427;SDS011;42331;53.578;9.760;2023-11-21T09:43:17;5.13;;;3.00;;
56427;SDS011;42331;53.578;9.760;2023-11-21T09:45:52;6.10;;;2.70;;
56427;SDS011;42331;53.578;9.760;2023-11-21T09:48:25;6.32;;;2.90;;
56427;SDS011;42331;53.578;9.760;2023-11-21T09:50:56;6.53;;;2.80;;
56427;SDS011;42331;53.578;9.760;2023-11-21T09:53:29;4.90;;;2.75;;
56427;SDS011;42331;53.578;9.760;2023-11-21T09:56:03;4.30;;;2.22;;
56427;SDS011;42331;53.578;9.760;2023-11-21T09:58:34;2.70;;;1.55;;
56427;SDS011;42331;53.578;9.760;2023-11-21T10:01:05;5.20;;;2.40;;
56427;SDS011;42331;53.578;9.760;2023-11-21T10:03:39;4.90;;;2.10;;
56427;SDS011;42331;53.578;9.760;2023-11-21T10:06:12;6.72;;;2.35;;
56427;SDS011;42331;53.578;9.760;2023-11-21T10:08:46;4.57;;;2.55;;
56427;SDS011;42331;53.578;9.760;2023-11-21T10:11:18;5.07;;;2.28;;
56427;SDS011;42331;53.578;9.760;2023-11-21T10:13:54;3.28;;;1.98;;
56427;SDS011;42331;53.578;9.760;2023-11-21T10:16:28;3.67;;;2.08;;
56427;SDS011;42331;53.578;9.760;2023-11-21T10:18:59;7.00;;;2.30;;
56427;SDS011;42331;53.578;9.760;2023-11-21T10:21:30;6.23;;;2.13;;
56427;SDS011;42331;53.578;9.760;2023-11-21T10:24:03;3.65;;;2.13;;
56427;SDS011;42331;53.578;9.760;2023-11-21T10:26:34;3.45;;;1.98;;
56427;SDS011;42331;53.578;9.760;2023-11-21T10:29:06;4.75;;;2.40;;
56427;SDS011;42331;53.578;9.760;2023-11-21T10:31:37;6.67;;;2.23;;
56427;SDS011;42331;53.578;9.760;2023-11-21T10:34:20;3.78;;;2.13;;
56427;SDS011;42331;53.578;9.760;2023-11-21T10:36:52;4.18;;;2.40;;
56427;SDS011;42331;53.578;9.760;2023-11-21T10:39:23;4.93;;;1.88;;
56427;SDS011;42331;53.578;9.760;2023-11-21T10:41:57;3.97;;;2.00;;
56427;SDS011;42331;53.578;9.760;2023-11-21T10:44:29;5.35;;;2.00;;
56427;SDS011;42331;53.578;9.760;2023-11-21T10:47:00;5.00;;;2.22;;
56427;SDS011;42331;53.578;9.760;2023-11-21T10:52:03;3.25;;;2.00;;
56427;SDS011;42331;53.578;9.760;2023-11-21T10:54:34;2.88;;;1.55;;
56427;SDS011;42331;53.578;9.760;2023-11-21T10:57:06;4.60;;;2.00;;
56427;SDS011;42331;53.578;9.760;2023-11-21T11:02:40;3.08;;;1.80;;
56427;SDS011;42331;53.578;9.760;2023-11-21T11:05:12;5.55;;;2.20;;
56427;SDS011;42331;53.578;9.760;2023-11-21T11:07:43;4.15;;;2.20;;
56427;SDS011;42331;53.578;9.760;2023-11-21T11:10:15;6.28;;;2.33;;
56427;SDS011;42331;53.578;9.760;2023-11-21T11:12:46;4.03;;;2.20;;
56427;SDS011;42331;53.578;9.760;2023-11-21T11:15:18;4.00;;;1.80;;
56427;SDS011;42331;53.578;9.760;2023-11-21T11:20:20;3.35;;;1.80;;
56427;SDS011;42331;53.578;9.760;2023-11-21T11:25:30;3.58;;;2.00;;
56427;SDS011;42331;53.578;9.760;2023-11-21T11:28:12;8.40;;;1.63;;
56427;SDS011;42331;53.578;9.760;2023-11-21T11:33:36;4.38;;;1.80;;
56427;SDS011;42331;53.578;9.760;2023-11-21T11:36:31;5.88;;;1.90;;
56427;SDS011;42331;53.578;9.760;2023-11-21T11:39:00;4.47;;;1.80;;
56427;SDS011;42331;53.578;9.760;2023-11-21T11:41:32;4.70;;;2.17;;
56427;SDS011;42331;53.578;9.760;2023-11-21T11:44:09;3.97;;;2.00;;
56427;SDS011;42331;53.578;9.760;2023-11-21T11:46:56;3.88;;;1.85;;
56427;SDS011;42331;53.578;9.760;2023-11-21T11:49:27;4.03;;;1.80;;
56427;SDS011;42331;53.578;9.760;2023-11-21T11:54:48;4.28;;;2.00;;
56427;SDS011;42331;53.578;9.760;2023-11-21T11:57:20;3.30;;;1.73;;
56427;SDS011;42331;53.578;9.760;2023-11-21T12:00:16;3.83;;;1.55;;
56427;SDS011;42331;53.578;9.760;2023-11-21T12:02:53;4.75;;;1.80;;
56427;SDS011;42331;53.578;9.760;2023-11-21T12:05:25;3.45;;;1.60;;
56427;SDS011;42331;53.578;9.760;2023-11-21T12:08:00;3.95;;;1.60;;
56427;SDS011;42331;53.578;9.760;2023-11-21T12:10:32;4.53;;;1.48;;
56427;SDS011;42331;53.578;9.760;2023-11-21T12:13:07;2.78;;;1.58;;
56427;SDS011;42331;53.578;9.760;2023-11-21T12:15:40;3.55;;;1.70;;
56427;SDS011;42331;53.578;9.760;2023-11-21T12:18:11;2.78;;;1.67;;
56427;SDS011;42331;53.578;9.760;2023-11-21T12:20:42;4.03;;;1.77;;
56427;SDS011;42331;53.578;9.760;2023-11-21T12:23:17;3.53;;;1.90;;
56427;SDS011;42331;53.578;9.760;2023-11-21T12:25:48;3.07;;;1.33;;
56427;SDS011;42331;53.578;9.760;2023-11-21T12:28:19;2.78;;;2.08;;
56427;SDS011;42331;53.578;9.760;2023-11-21T12:30:53;3.22;;;1.83;;
56427;SDS011;42331;53.578;9.760;2023-11-21T12:33:24;3.75;;;1.60;;
56427;SDS011;42331;53.578;9.760;2023-11-21T12:35:56;3.53;;;1.63;;
56427;SDS011;42331;53.578;9.760;2023-11-21T12:38:34;3.47;;;1.58;;
56427;SDS011;42331;53.578;9.760;2023-11-21T12:41:05;3.15;;;1.63;;
56427;SDS011;42331;53.578;9.760;2023-11-21T12:43:36;2.65;;;1.45;;
56427;SDS011;42331;53.578;9.760;2023-11-21T12:46:10;3.72;;;1.80;;
56427;SDS011;42331;53.578;9.760;2023-11-21T12:48:41;6.88;;;1.80;;
56427;SDS011;42331;53.578;9.760;2023-11-21T12:51:18;3.70;;;2.20;;
56427;SDS011;42331;53.578;9.760;2023-11-21T12:53:49;4.83;;;2.57;;
56427;SDS011;42331;53.578;9.760;2023-11-21T12:56:21;3.03;;;1.97;;
56427;SDS011;42331;53.578;9.760;2023-11-21T12:58:55;5.03;;;3.22;;
56427;SDS011;42331;53.578;9.760;2023-11-21T13:01:27;4.80;;;2.75;;
56427;SDS011;42331;53.578;9.760;2023-11-21T13:03:59;3.92;;;2.28;;
56427;SDS011;42331;53.578;9.760;2023-11-21T13:06:32;4.45;;;2.92;;
56427;SDS011;42331;53.578;9.760;2023-11-21T13:09:08;4.22;;;2.53;;
56427;SDS011;42331;53.578;9.760;2023-11-21T13:11:48;5.50;;;2.53;;
56427;SDS011;42331;53.578;9.760;2023-11-21T13:14:19;3.92;;;2.35;;
56427;SDS011;42331;53.578;9.760;2023-11-21T13:16:50;4.20;;;2.80;;
56427;SDS011;42331;53.578;9.760;2023-11-21T13:19:21;5.07;;;2.40;;
56427;SDS011;42331;53.578;9.760;2023-11-21T13:21:54;4.38;;;2.40;;
56427;SDS011;42331;53.578;9.760;2023-11-21T13:24:25;4.90;;;2.65;;
56427;SDS011;42331;53.578;9.760;2023-11-21T13:26:56;4.15;;;2.40;;
56427;SDS011;42331;53.578;9.760;2023-11-21T13:29:28;4.07;;;2.50;;
56427;SDS011;42331;53.578;9.760;2023-11-21T13:32:00;5.28;;;2.40;;
56427;SDS011;42331;53.578;9.760;2023-11-21T13:34:31;3.90;;;2.08;;
56427;SDS011;42331;53.578;9.760;2023-11-21T13:37:02;5.40;;;2.30;;
56427;SDS011;42331;53.578;9.760;2023-11-21T13:39:34;5.13;;;2.20;;
56427;SDS011;42331;53.578;9.760;2023-11-21T13:42:06;4.38;;;1.92;;
56427;SDS011;42331;53.578;9.760;2023-11-21T13:44:38;3.38;;;1.88;;
56427;SDS011;42331;53.578;9.760;2023-11-21T13:47:14;4.55;;;2.33;;
56427;SDS011;42331;53.578;9.760;2023-11-21T13:49:45;3.55;;;2.15;;
56427;SDS011;42331;53.578;9.760;2023-11-21T13:52:18;3.25;;;2.20;;
56427;SDS011;42331;53.578;9.760;2023-11-21T13:54:52;4.90;;;2.30;;
56427;SDS011;42331;53.578;9.760;2023-11-21T13:57:23;5.60;;;2.70;;
56427;SDS011;42331;53.578;9.760;2023-11-21T13:59:54;5.07;;;2.40;;
56427;SDS011;42331;53.578;9.760;2023-11-21T14:02:28;4.15;;;2.50;;
56427;SDS011;42331;53.578;9.760;2023-11-21T14:05:07;5.80;;;2.88;;
56427;SDS011;42331;53.578;9.760;2023-11-21T14:07:39;5.00;;;2.58;;
56427;SDS011;42331;53.578;9.760;2023-11-21T14:10:17;4.65;;;2.65;;
56427;SDS011;42331;53.578;9.760;2023-11-21T14:12:52;5.85;;;2.47;;
56427;SDS011;42331;53.578;9.760;2023-11-21T14:15:23;6.47;;;3.38;;
56427;SDS011;42331;53.578;9.760;2023-11-21T14:17:54;6.10;;;3.80;;
56427;SDS011;42331;53.578;9.760;2023-11-21T14:20:25;4.00;;;2.08;;
56427;SDS011;42331;53.578;9.760;2023-11-21T14:22:56;7.20;;;3.77;;
56427;SDS011;42331;53.578;9.760;2023-11-21T14:25:27;5.33;;;3.00;;
56427;SDS011;42331;53.578;9.760;2023-11-21T14:27:58;6.80;;;3.00;;
56427;SDS011;42331;53.578;9.760;2023-11-21T14:30:30;9.20;;;3.73;;
56427;SDS011;42331;53.578;9.760;2023-11-21T14:33:06;5.25;;;2.80;;
56427;SDS011;42331;53.578;9.760;2023-11-21T14:35:38;5.05;;;3.30;;
56427;SDS011;42331;53.578;9.760;2023-11-21T14:38:10;9.65;;;2.97;;
56427;SDS011;42331;53.578;9.760;2023-11-21T14:40:41;5.55;;;2.83;;
56427;SDS011;42331;53.578;9.760;2023-11-21T14:43:12;6.60;;;2.70;;
56427;SDS011;42331;53.578;9.760;2023-11-21T14:45:43;6.88;;;3.28;;
56427;SDS011;42331;53.578;9.760;2023-11-21T14:48:14;4.05;;;2.70;;
56427;SDS011;42331;53.578;9.760;2023-11-21T14:51:04;11.07;;;4.60;;
56427;SDS011;42331;53.578;9.760;2023-11-21T14:53:35;7.13;;;3.77;;
56427;SDS011;42331;53.578;9.760;2023-11-21T14:56:13;5.57;;;3.22;;
56427;SDS011;42331;53.578;9.760;2023-11-21T14:58:53;4.45;;;2.40;;
56427;SDS011;42331;53.578;9.760;2023-11-21T15:01:25;5.10;;;2.40;;
56427;SDS011;42331;53.578;9.760;2023-11-21T15:04:15;4.20;;;2.20;;
56427;SDS011;42331;53.578;9.760;2023-11-21T15:07:13;5.38;;;2.80;;
56427;SDS011;42331;53.578;9.760;2023-11-21T15:09:44;4.43;;;2.40;;
56427;SDS011;42331;53.578;9.760;2023-11-21T15:12:15;6.77;;;2.70;;
56427;SDS011;42331;53.578;9.760;2023-11-21T15:14:47;6.57;;;2.42;;
56427;SDS011;42331;53.578;9.760;2023-11-21T15:17:22;6.38;;;2.38;;
56427;SDS011;42331;53.578;9.760;2023-11-21T15:19:56;3.33;;;2.17;;
56427;SDS011;42331;53.578;9.760;2023-11-21T15:22:27;4.85;;;1.98;;
56427;SDS011;42331;53.578;9.760;2023-11-21T15:24:59;4.67;;;1.57;;
56427;SDS011;42331;53.578;9.760;2023-11-21T15:27:34;3.70;;;1.80;;
56427;SDS011;42331;53.578;9.760;2023-11-21T15:30:06;4.28;;;2.00;;
56427;SDS011;42331;53.578;9.760;2023-11-21T15:32:37;3.15;;;1.30;;
56427;SDS011;42331;53.578;9.760;2023-11-21T15:35:09;5.05;;;2.08;;
56427;SDS011;42331;53.578;9.760;2023-11-21T15:37:44;3.70;;;2.00;;